SYN001 KSMF-KSAN
Flight info
| Callsign | SYN001 |
|---|---|
| Flight time | 1h 13m |
| Altitude | 37000 |
| Route | FTHIL3 FRA EHF HUULK COMIX2 |
| Aircraft | BCS3/M-SBDE2E3GIRWXY/LB1 |
Departure
| Time | 2026-05-05 02:50 |
|---|---|
| Airport | Sacramento International Airport (KSMF) |
Arrival
| Time | 2026-05-05 04:04 |
|---|---|
| Airport | San Diego International Airport (KSAN) |
| Time | Latitude | Longitude | Altitude | Speed | Heading |
|---|---|---|---|---|---|
| 2026-05-05 02:25 | 38.69627 | -121.59244 | 35 ft | 0 kts | 181° |
| 2026-05-05 02:37 | 38.69643 | -121.59243 | 34 ft | 2 kts | 181° |
| 2026-05-05 02:37 | 38.69645 | -121.59243 | 34 ft | 0 kts | 181° |
| 2026-05-05 02:39 | 38.69651 | -121.59243 | 34 ft | 2 kts | 181° |
| 2026-05-05 02:39 | 38.69665 | -121.59242 | 35 ft | 2 kts | 181° |
| 2026-05-05 02:39 | 38.69678 | -121.59242 | 36 ft | 2 kts | 181° |
| 2026-05-05 02:40 | 38.69681 | -121.59242 | 36 ft | 0 kts | 181° |
| 2026-05-05 02:41 | 38.69678 | -121.59243 | 36 ft | 2 kts | 194° |
| 2026-05-05 02:41 | 38.69665 | -121.59256 | 34 ft | 2 kts | 229° |
| 2026-05-05 02:41 | 38.69659 | -121.59297 | 34 ft | 8 kts | 273° |
| 2026-05-05 02:41 | 38.69679 | -121.59435 | 36 ft | 20 kts | 281° |
| 2026-05-05 02:42 | 38.69698 | -121.59596 | 36 ft | 17 kts | 271° |
| 2026-05-05 02:42 | 38.69702 | -121.59731 | 35 ft | 14 kts | 272° |
| 2026-05-05 02:42 | 38.69716 | -121.59838 | 34 ft | 11 kts | 302° |
| 2026-05-05 02:42 | 38.69764 | -121.59864 | 34 ft | 6 kts | 0° |
| 2026-05-05 02:43 | 38.69836 | -121.59861 | 34 ft | 18 kts | 2° |
| 2026-05-05 02:43 | 38.69988 | -121.59859 | 34 ft | 18 kts | 359° |
| 2026-05-05 02:43 | 38.70103 | -121.59858 | 36 ft | 15 kts | 0° |
| 2026-05-05 02:43 | 38.70221 | -121.59857 | 35 ft | 19 kts | 0° |
| 2026-05-05 02:44 | 38.70371 | -121.59856 | 36 ft | 23 kts | 0° |
| 2026-05-05 02:44 | 38.70548 | -121.59854 | 35 ft | 28 kts | 0° |
| 2026-05-05 02:44 | 38.70629 | -121.59851 | 35 ft | 1 kts | 2° |
| 2026-05-05 02:44 | 38.70641 | -121.59850 | 35 ft | 1 kts | 2° |
| 2026-05-05 02:45 | 38.70651 | -121.59850 | 35 ft | 6 kts | 2° |
| 2026-05-05 02:45 | 38.70696 | -121.59862 | 35 ft | 6 kts | 327° |
| 2026-05-05 02:45 | 38.70713 | -121.59889 | 35 ft | 3 kts | 296° |
| 2026-05-05 02:46 | 38.70723 | -121.59938 | 35 ft | 13 kts | 278° |
| 2026-05-05 02:46 | 38.70722 | -121.59989 | 35 ft | 0 kts | 265° |
| 2026-05-05 02:47 | 38.70721 | -121.60003 | 35 ft | 7 kts | 265° |
| 2026-05-05 02:47 | 38.70693 | -121.60092 | 33 ft | 11 kts | 220° |
| 2026-05-05 02:47 | 38.70647 | -121.60110 | 36 ft | 0 kts | 183° |
| 2026-05-05 02:49 | 38.70646 | -121.60110 | 36 ft | 1 kts | 183° |
| 2026-05-05 02:50 | 38.70471 | -121.60115 | 36 ft | 59 kts | 181° |
| 2026-05-05 02:50 | 38.69828 | -121.60128 | 35 ft | 125 kts | 180° |
| 2026-05-05 02:50 | 38.68846 | -121.60147 | 566 ft | 141 kts | 180° |
| 2026-05-05 02:50 | 38.67826 | -121.60164 | 1332 ft | 154 kts | 175° |
| 2026-05-05 02:51 | 38.66879 | -121.59453 | 2181 ft | 167 kts | 132° |
| 2026-05-05 02:51 | 38.66176 | -121.58190 | 2989 ft | 183 kts | 126° |
| 2026-05-05 02:51 | 38.65442 | -121.56765 | 3864 ft | 199 kts | 126° |
| 2026-05-05 02:51 | 38.64653 | -121.55227 | 4786 ft | 215 kts | 125° |
| 2026-05-05 02:52 | 38.63798 | -121.53561 | 5681 ft | 233 kts | 124° |
| 2026-05-05 02:52 | 38.62876 | -121.51766 | 6540 ft | 250 kts | 124° |
| 2026-05-05 02:52 | 38.61892 | -121.49850 | 7338 ft | 266 kts | 123° |
| 2026-05-05 02:52 | 38.60844 | -121.47808 | 8099 ft | 282 kts | 123° |
| 2026-05-05 02:53 | 38.59754 | -121.45682 | 8863 ft | 293 kts | 122° |
| 2026-05-05 02:53 | 38.58629 | -121.43488 | 9042 ft | 294 kts | 122° |
| 2026-05-05 02:53 | 38.57517 | -121.41319 | 9029 ft | 289 kts | 122° |
| 2026-05-05 02:53 | 38.56425 | -121.39190 | 9008 ft | 290 kts | 122° |
| 2026-05-05 02:54 | 38.55316 | -121.37031 | 9003 ft | 290 kts | 122° |
| 2026-05-05 02:54 | 38.54223 | -121.34904 | 9000 ft | 290 kts | 122° |
| 2026-05-05 02:54 | 38.53110 | -121.32736 | 9110 ft | 298 kts | 122° |
| 2026-05-05 02:54 | 38.51987 | -121.30555 | 10267 ft | 290 kts | 122° |
| 2026-05-05 02:55 | 38.50854 | -121.28354 | 10863 ft | 305 kts | 122° |
| 2026-05-05 02:55 | 38.49660 | -121.26035 | 11305 ft | 319 kts | 121° |
| 2026-05-05 02:55 | 38.48428 | -121.23644 | 11913 ft | 324 kts | 121° |
| 2026-05-05 02:55 | 38.47184 | -121.21234 | 12642 ft | 326 kts | 121° |
| 2026-05-05 02:56 | 38.45933 | -121.18812 | 13356 ft | 328 kts | 121° |
| 2026-05-05 02:56 | 38.44674 | -121.16374 | 14046 ft | 330 kts | 120° |
| 2026-05-05 02:56 | 38.43406 | -121.13922 | 14712 ft | 332 kts | 120° |
| 2026-05-05 02:56 | 38.42131 | -121.11458 | 15369 ft | 333 kts | 120° |
| 2026-05-05 02:57 | 38.40850 | -121.08984 | 16014 ft | 335 kts | 120° |
| 2026-05-05 02:57 | 38.39563 | -121.06501 | 16681 ft | 337 kts | 119° |
| 2026-05-05 02:57 | 38.38268 | -121.04002 | 17347 ft | 339 kts | 119° |
| 2026-05-05 02:57 | 38.36981 | -121.01522 | 17980 ft | 340 kts | 118° |
| 2026-05-05 02:58 | 38.35667 | -120.98990 | 18579 ft | 343 kts | 118° |
| 2026-05-05 02:58 | 38.34349 | -120.96453 | 19132 ft | 345 kts | 118° |
| 2026-05-05 02:58 | 38.33018 | -120.93892 | 19682 ft | 347 kts | 118° |
| 2026-05-05 02:58 | 38.31681 | -120.91320 | 20205 ft | 350 kts | 118° |
| 2026-05-05 02:59 | 38.30343 | -120.88749 | 20745 ft | 352 kts | 118° |
| 2026-05-05 02:59 | 38.28968 | -120.86109 | 21270 ft | 355 kts | 118° |
| 2026-05-05 02:59 | 38.27615 | -120.83512 | 21755 ft | 358 kts | 118° |
| 2026-05-05 02:59 | 38.26237 | -120.80870 | 22281 ft | 360 kts | 118° |
| 2026-05-05 03:00 | 38.24839 | -120.78189 | 22728 ft | 364 kts | 118° |
| 2026-05-05 03:00 | 38.23434 | -120.75498 | 23187 ft | 367 kts | 118° |
| 2026-05-05 03:00 | 38.22014 | -120.72782 | 23652 ft | 369 kts | 118° |
| 2026-05-05 03:00 | 38.20589 | -120.70056 | 24056 ft | 371 kts | 118° |
| 2026-05-05 03:01 | 38.19153 | -120.67313 | 24445 ft | 373 kts | 118° |
| 2026-05-05 03:01 | 38.17707 | -120.64553 | 24823 ft | 375 kts | 118° |
| 2026-05-05 03:01 | 38.16252 | -120.61777 | 25176 ft | 378 kts | 118° |
| 2026-05-05 03:01 | 38.14792 | -120.58995 | 25544 ft | 379 kts | 118° |
| 2026-05-05 03:02 | 38.13340 | -120.56229 | 25925 ft | 381 kts | 118° |
| 2026-05-05 03:02 | 38.11864 | -120.53422 | 26266 ft | 383 kts | 118° |
| 2026-05-05 03:02 | 38.10377 | -120.50595 | 26606 ft | 385 kts | 118° |
| 2026-05-05 03:02 | 38.08889 | -120.47767 | 26940 ft | 386 kts | 118° |
| 2026-05-05 03:03 | 38.07392 | -120.44923 | 27286 ft | 388 kts | 118° |
| 2026-05-05 03:03 | 38.05958 | -120.42200 | 27578 ft | 390 kts | 118° |
| 2026-05-05 03:03 | 38.04409 | -120.39367 | 27860 ft | 392 kts | 120° |
| 2026-05-05 03:03 | 38.02830 | -120.36533 | 28178 ft | 394 kts | 120° |
| 2026-05-05 03:04 | 38.01245 | -120.33691 | 28475 ft | 395 kts | 120° |
| 2026-05-05 03:04 | 37.99652 | -120.30835 | 28760 ft | 397 kts | 120° |
| 2026-05-05 03:04 | 37.98054 | -120.27971 | 29046 ft | 399 kts | 120° |
| 2026-05-05 03:04 | 37.96448 | -120.25094 | 29286 ft | 401 kts | 120° |
| 2026-05-05 03:05 | 37.94694 | -120.22317 | 29513 ft | 411 kts | 131° |
| 2026-05-05 03:05 | 37.92404 | -120.20147 | 29730 ft | 421 kts | 141° |
| 2026-05-05 03:05 | 37.89872 | -120.18178 | 30021 ft | 423 kts | 142° |
| 2026-05-05 03:05 | 37.87375 | -120.16303 | 30243 ft | 425 kts | 143° |
| 2026-05-05 03:06 | 37.84819 | -120.14394 | 30418 ft | 426 kts | 143° |
| 2026-05-05 03:06 | 37.82256 | -120.12482 | 30586 ft | 428 kts | 143° |
| 2026-05-05 03:06 | 37.79683 | -120.10565 | 30751 ft | 430 kts | 144° |
| 2026-05-05 03:06 | 37.77106 | -120.08647 | 30921 ft | 431 kts | 144° |
| 2026-05-05 03:07 | 37.74510 | -120.06716 | 31105 ft | 432 kts | 144° |
| 2026-05-05 03:07 | 37.71940 | -120.04806 | 31259 ft | 433 kts | 144° |
| 2026-05-05 03:07 | 37.69334 | -120.02872 | 31434 ft | 434 kts | 145° |
| 2026-05-05 03:07 | 37.66730 | -120.00939 | 31560 ft | 435 kts | 145° |
| 2026-05-05 03:08 | 37.64114 | -119.99000 | 31700 ft | 436 kts | 145° |
| 2026-05-05 03:08 | 37.61494 | -119.97060 | 31841 ft | 437 kts | 145° |
| 2026-05-05 03:08 | 37.58867 | -119.95115 | 31964 ft | 438 kts | 146° |
| 2026-05-05 03:08 | 37.56225 | -119.93162 | 32084 ft | 439 kts | 146° |
| 2026-05-05 03:09 | 37.53584 | -119.91210 | 32182 ft | 441 kts | 146° |
| 2026-05-05 03:09 | 37.50969 | -119.89278 | 32312 ft | 441 kts | 146° |
| 2026-05-05 03:09 | 37.48314 | -119.87320 | 32415 ft | 442 kts | 147° |
| 2026-05-05 03:10 | 37.42979 | -119.83389 | 32597 ft | 444 kts | 147° |
| 2026-05-05 03:10 | 37.37631 | -119.79455 | 32775 ft | 446 kts | 147° |
| 2026-05-05 03:10 | 37.34947 | -119.77484 | 32881 ft | 446 kts | 148° |
| 2026-05-05 03:11 | 37.32256 | -119.75509 | 32956 ft | 447 kts | 148° |
| 2026-05-05 03:11 | 37.26892 | -119.71577 | 33117 ft | 448 kts | 148° |
| 2026-05-05 03:12 | 37.21492 | -119.67624 | 33265 ft | 449 kts | 148° |
| 2026-05-05 03:12 | 37.16074 | -119.63665 | 33403 ft | 450 kts | 149° |
| 2026-05-05 03:12 | 37.13402 | -119.61715 | 33513 ft | 450 kts | 149° |
| 2026-05-05 03:13 | 37.10619 | -119.59933 | 33589 ft | 450 kts | 158° |
| 2026-05-05 03:13 | 37.07647 | -119.58706 | 33709 ft | 449 kts | 164° |
| 2026-05-05 03:13 | 37.04624 | -119.57716 | 33823 ft | 449 kts | 166° |
| 2026-05-05 03:13 | 37.01593 | -119.56764 | 33945 ft | 448 kts | 166° |
| 2026-05-05 03:14 | 36.98560 | -119.55815 | 34053 ft | 448 kts | 166° |
| 2026-05-05 03:14 | 36.92515 | -119.53927 | 34224 ft | 447 kts | 166° |
| 2026-05-05 03:15 | 36.86511 | -119.52053 | 34363 ft | 447 kts | 167° |
| 2026-05-05 03:15 | 36.83503 | -119.51114 | 34466 ft | 446 kts | 167° |
| 2026-05-05 03:15 | 36.80479 | -119.50172 | 34542 ft | 446 kts | 167° |
| 2026-05-05 03:16 | 36.74468 | -119.48298 | 34708 ft | 445 kts | 167° |
| 2026-05-05 03:16 | 36.68451 | -119.46428 | 34880 ft | 444 kts | 167° |
| 2026-05-05 03:17 | 36.62437 | -119.44562 | 35034 ft | 444 kts | 167° |
| 2026-05-05 03:17 | 36.56475 | -119.42715 | 35203 ft | 443 kts | 168° |
| 2026-05-05 03:18 | 36.50488 | -119.40862 | 35378 ft | 442 kts | 168° |
| 2026-05-05 03:18 | 36.44532 | -119.39021 | 35566 ft | 440 kts | 168° |
| 2026-05-05 03:19 | 36.35638 | -119.36280 | 35850 ft | 438 kts | 169° |
| 2026-05-05 03:19 | 36.29742 | -119.34465 | 36026 ft | 437 kts | 169° |
| 2026-05-05 03:20 | 36.24820 | -119.32953 | 36169 ft | 436 kts | 169° |
| 2026-05-05 03:20 | 36.20923 | -119.31757 | 36283 ft | 435 kts | 169° |
| 2026-05-05 03:20 | 36.17985 | -119.30856 | 36367 ft | 434 kts | 169° |
| 2026-05-05 03:21 | 36.13078 | -119.29352 | 36508 ft | 433 kts | 169° |
| 2026-05-05 03:21 | 36.07284 | -119.27580 | 36660 ft | 432 kts | 170° |
| 2026-05-05 03:22 | 36.01448 | -119.25797 | 36800 ft | 431 kts | 170° |
| 2026-05-05 03:22 | 35.95621 | -119.24020 | 36948 ft | 430 kts | 170° |
| 2026-05-05 03:23 | 35.89807 | -119.22250 | 36993 ft | 431 kts | 170° |
| 2026-05-05 03:23 | 35.83950 | -119.20470 | 36989 ft | 433 kts | 170° |
| 2026-05-05 03:24 | 35.78117 | -119.18697 | 36984 ft | 427 kts | 171° |
| 2026-05-05 03:24 | 35.72373 | -119.16955 | 36988 ft | 425 kts | 171° |
| 2026-05-05 03:25 | 35.66598 | -119.15209 | 36997 ft | 429 kts | 171° |
| 2026-05-05 03:25 | 35.60902 | -119.13488 | 36986 ft | 431 kts | 171° |
| 2026-05-05 03:26 | 35.55669 | -119.11907 | 36971 ft | 425 kts | 171° |
| 2026-05-05 03:26 | 35.49890 | -119.10161 | 36976 ft | 426 kts | 170° |
| 2026-05-05 03:27 | 35.44303 | -119.07440 | 36977 ft | 435 kts | 161° |
| 2026-05-05 03:27 | 35.38796 | -119.04356 | 36975 ft | 434 kts | 161° |
| 2026-05-05 03:28 | 35.33314 | -119.01290 | 36976 ft | 431 kts | 161° |
| 2026-05-05 03:28 | 35.27840 | -118.98239 | 36980 ft | 433 kts | 161° |
| 2026-05-05 03:29 | 35.22371 | -118.95195 | 36976 ft | 434 kts | 162° |
| 2026-05-05 03:29 | 35.16895 | -118.92151 | 36977 ft | 430 kts | 162° |
| 2026-05-05 03:30 | 35.11451 | -118.89132 | 36981 ft | 431 kts | 162° |
| 2026-05-05 03:30 | 35.05975 | -118.86101 | 36981 ft | 431 kts | 162° |
| 2026-05-05 03:31 | 35.00544 | -118.83097 | 36984 ft | 429 kts | 162° |
| 2026-05-05 03:31 | 34.95125 | -118.80105 | 36983 ft | 428 kts | 163° |
| 2026-05-05 03:32 | 34.89692 | -118.77110 | 36991 ft | 429 kts | 163° |
| 2026-05-05 03:32 | 34.84260 | -118.74121 | 36988 ft | 426 kts | 163° |
| 2026-05-05 03:33 | 34.78870 | -118.71156 | 36993 ft | 424 kts | 163° |
| 2026-05-05 03:33 | 34.73469 | -118.68193 | 36996 ft | 427 kts | 164° |
| 2026-05-05 03:34 | 34.68082 | -118.65242 | 36997 ft | 426 kts | 164° |
| 2026-05-05 03:34 | 34.62695 | -118.62292 | 36996 ft | 423 kts | 164° |
| 2026-05-05 03:35 | 34.57379 | -118.59126 | 37005 ft | 431 kts | 159° |
| 2026-05-05 03:35 | 34.52182 | -118.55417 | 37003 ft | 432 kts | 159° |
| 2026-05-05 03:36 | 34.47058 | -118.51749 | 37006 ft | 428 kts | 159° |
| 2026-05-05 03:36 | 34.41915 | -118.48081 | 37010 ft | 430 kts | 159° |
| 2026-05-05 03:37 | 34.36738 | -118.44398 | 37006 ft | 430 kts | 159° |
| 2026-05-05 03:37 | 34.31623 | -118.40761 | 37026 ft | 427 kts | 160° |
| 2026-05-05 03:38 | 34.26486 | -118.37119 | 37032 ft | 429 kts | 160° |
| 2026-05-05 03:38 | 34.21318 | -118.33460 | 37031 ft | 429 kts | 160° |
| 2026-05-05 03:39 | 34.16217 | -118.29851 | 37025 ft | 427 kts | 160° |
| 2026-05-05 03:39 | 34.11081 | -118.26225 | 37028 ft | 428 kts | 160° |
| 2026-05-05 03:40 | 34.05958 | -118.22619 | 36431 ft | 438 kts | 161° |
| 2026-05-05 03:40 | 34.03302 | -118.20752 | 35773 ft | 441 kts | 161° |
| 2026-05-05 03:40 | 34.00659 | -118.18888 | 35232 ft | 439 kts | 161° |
| 2026-05-05 03:41 | 33.98035 | -118.17037 | 34658 ft | 436 kts | 162° |
| 2026-05-05 03:41 | 33.95422 | -118.15197 | 34072 ft | 433 kts | 162° |
| 2026-05-05 03:41 | 33.92831 | -118.13375 | 33456 ft | 430 kts | 162° |
| 2026-05-05 03:41 | 33.90259 | -118.11568 | 32907 ft | 424 kts | 162° |
| 2026-05-05 03:42 | 33.87724 | -118.09789 | 32350 ft | 420 kts | 162° |
| 2026-05-05 03:42 | 33.85211 | -118.08028 | 31796 ft | 416 kts | 162° |
| 2026-05-05 03:42 | 33.82704 | -118.06324 | 31224 ft | 411 kts | 163° |
| 2026-05-05 03:42 | 33.80205 | -118.04669 | 30684 ft | 408 kts | 163° |
| 2026-05-05 03:43 | 33.77721 | -118.03030 | 30141 ft | 405 kts | 163° |
| 2026-05-05 03:43 | 33.75359 | -118.01471 | 29566 ft | 402 kts | 162° |
| 2026-05-05 03:43 | 33.72909 | -117.99851 | 29057 ft | 397 kts | 162° |
| 2026-05-05 03:43 | 33.70501 | -117.98261 | 28536 ft | 393 kts | 162° |
| 2026-05-05 03:44 | 33.68112 | -117.96685 | 28054 ft | 390 kts | 162° |
| 2026-05-05 03:44 | 33.65734 | -117.95117 | 27536 ft | 388 kts | 161° |
| 2026-05-05 03:44 | 33.63371 | -117.93562 | 27027 ft | 387 kts | 161° |
| 2026-05-05 03:44 | 33.61006 | -117.92005 | 26510 ft | 387 kts | 161° |
| 2026-05-05 03:45 | 33.58649 | -117.90454 | 25995 ft | 385 kts | 160° |
| 2026-05-05 03:45 | 33.56308 | -117.88913 | 25494 ft | 383 kts | 160° |
| 2026-05-05 03:45 | 33.53969 | -117.87367 | 24978 ft | 384 kts | 159° |
| 2026-05-05 03:45 | 33.51669 | -117.85805 | 24482 ft | 383 kts | 158° |
| 2026-05-05 03:46 | 33.49361 | -117.84231 | 23978 ft | 381 kts | 158° |
| 2026-05-05 03:46 | 33.47055 | -117.82659 | 23442 ft | 381 kts | 157° |
| 2026-05-05 03:46 | 33.44765 | -117.81072 | 22906 ft | 380 kts | 153° |
| 2026-05-05 03:46 | 33.42678 | -117.79104 | 22430 ft | 383 kts | 146° |
| 2026-05-05 03:47 | 33.40681 | -117.76991 | 21909 ft | 382 kts | 144° |
| 2026-05-05 03:47 | 33.38703 | -117.74872 | 21409 ft | 378 kts | 144° |
| 2026-05-05 03:47 | 33.36749 | -117.72778 | 20915 ft | 375 kts | 144° |
| 2026-05-05 03:47 | 33.34810 | -117.70704 | 20416 ft | 373 kts | 144° |
| 2026-05-05 03:48 | 33.32906 | -117.68669 | 19935 ft | 370 kts | 144° |
| 2026-05-05 03:48 | 33.30995 | -117.66628 | 19443 ft | 367 kts | 144° |
| 2026-05-05 03:48 | 33.29099 | -117.64606 | 18967 ft | 364 kts | 144° |
| 2026-05-05 03:48 | 33.27210 | -117.62592 | 18486 ft | 361 kts | 144° |
| 2026-05-05 03:49 | 33.25347 | -117.60607 | 17972 ft | 358 kts | 143° |
| 2026-05-05 03:49 | 33.23486 | -117.58637 | 17439 ft | 357 kts | 144° |
| 2026-05-05 03:49 | 33.21634 | -117.56687 | 16961 ft | 355 kts | 143° |
| 2026-05-05 03:49 | 33.19782 | -117.54737 | 16501 ft | 353 kts | 143° |
| 2026-05-05 03:50 | 33.17941 | -117.52802 | 16033 ft | 352 kts | 143° |
| 2026-05-05 03:50 | 33.16131 | -117.50899 | 15574 ft | 350 kts | 143° |
| 2026-05-05 03:50 | 33.14310 | -117.48986 | 15110 ft | 347 kts | 144° |
| 2026-05-05 03:50 | 33.12402 | -117.47245 | 14691 ft | 343 kts | 149° |
| 2026-05-05 03:51 | 33.10454 | -117.45615 | 14290 ft | 342 kts | 149° |
| 2026-05-05 03:51 | 33.08496 | -117.43990 | 13880 ft | 341 kts | 149° |
| 2026-05-05 03:51 | 33.06555 | -117.42378 | 13452 ft | 339 kts | 149° |
| 2026-05-05 03:51 | 33.04628 | -117.40777 | 13058 ft | 336 kts | 149° |
| 2026-05-05 03:52 | 33.02735 | -117.39194 | 12672 ft | 335 kts | 149° |
| 2026-05-05 03:52 | 33.00831 | -117.37598 | 12285 ft | 333 kts | 149° |
| 2026-05-05 03:52 | 32.98939 | -117.36013 | 11880 ft | 331 kts | 149° |
| 2026-05-05 03:52 | 32.97066 | -117.34442 | 11490 ft | 324 kts | 149° |
| 2026-05-05 03:53 | 32.95277 | -117.32940 | 11101 ft | 302 kts | 149° |
| 2026-05-05 03:53 | 32.93571 | -117.31511 | 10781 ft | 306 kts | 149° |
| 2026-05-05 03:53 | 32.91841 | -117.30067 | 10398 ft | 306 kts | 149° |
| 2026-05-05 03:53 | 32.90125 | -117.28636 | 10029 ft | 292 kts | 149° |
| 2026-05-05 03:54 | 32.88527 | -117.27301 | 9690 ft | 272 kts | 149° |
| 2026-05-05 03:54 | 32.86981 | -117.26017 | 9377 ft | 272 kts | 149° |
| 2026-05-05 03:54 | 32.85434 | -117.24735 | 9050 ft | 269 kts | 149° |
| 2026-05-05 03:54 | 32.83898 | -117.23461 | 8728 ft | 268 kts | 149° |
| 2026-05-05 03:55 | 32.82370 | -117.22183 | 8408 ft | 268 kts | 146° |
| 2026-05-05 03:55 | 32.81215 | -117.20444 | 8056 ft | 271 kts | 116° |
| 2026-05-05 03:55 | 32.80580 | -117.18325 | 7754 ft | 272 kts | 108° |
| 2026-05-05 03:55 | 32.80085 | -117.16231 | 7425 ft | 256 kts | 107° |
| 2026-05-05 03:56 | 32.79623 | -117.14178 | 7140 ft | 262 kts | 106° |
| 2026-05-05 03:56 | 32.79159 | -117.12116 | 6815 ft | 259 kts | 106° |
| 2026-05-05 03:56 | 32.78689 | -117.10022 | 6518 ft | 263 kts | 106° |
| 2026-05-05 03:56 | 32.78218 | -117.07920 | 6184 ft | 262 kts | 106° |
| 2026-05-05 03:57 | 32.77754 | -117.05864 | 5931 ft | 249 kts | 107° |
| 2026-05-05 03:57 | 32.77289 | -117.03934 | 5708 ft | 239 kts | 108° |
| 2026-05-05 03:57 | 32.76822 | -117.02023 | 5546 ft | 241 kts | 107° |
| 2026-05-05 03:57 | 32.76355 | -117.00116 | 5334 ft | 241 kts | 107° |
| 2026-05-05 03:58 | 32.75883 | -116.98225 | 5179 ft | 237 kts | 110° |
| 2026-05-05 03:58 | 32.74994 | -116.96604 | 4831 ft | 229 kts | 141° |
| 2026-05-05 03:58 | 32.73691 | -116.95693 | 4597 ft | 208 kts | 165° |
| 2026-05-05 03:58 | 32.72316 | -116.95449 | 4366 ft | 201 kts | 186° |
| 2026-05-05 03:59 | 32.71002 | -116.95813 | 4121 ft | 187 kts | 207° |
| 2026-05-05 03:59 | 32.69954 | -116.96653 | 3929 ft | 180 kts | 226° |
| 2026-05-05 03:59 | 32.69216 | -116.97846 | 3710 ft | 181 kts | 245° |
| 2026-05-05 03:59 | 32.68865 | -116.99257 | 3473 ft | 178 kts | 263° |
| 2026-05-05 04:00 | 32.68929 | -117.00712 | 3254 ft | 172 kts | 282° |
| 2026-05-05 04:00 | 32.69241 | -117.02029 | 3001 ft | 162 kts | 284° |
| 2026-05-05 04:00 | 32.69546 | -117.03293 | 2817 ft | 159 kts | 284° |
| 2026-05-05 04:00 | 32.69849 | -117.04539 | 2676 ft | 160 kts | 284° |
| 2026-05-05 04:01 | 32.70160 | -117.05813 | 2394 ft | 157 kts | 284° |
| 2026-05-05 04:01 | 32.70456 | -117.07021 | 2224 ft | 150 kts | 284° |
| 2026-05-05 04:01 | 32.70747 | -117.08217 | 2040 ft | 152 kts | 284° |
| 2026-05-05 04:01 | 32.71038 | -117.09418 | 1800 ft | 151 kts | 284° |
| 2026-05-05 04:02 | 32.71330 | -117.10612 | 1535 ft | 147 kts | 284° |
| 2026-05-05 04:02 | 32.71605 | -117.11721 | 1359 ft | 138 kts | 283° |
| 2026-05-05 04:02 | 32.71861 | -117.12806 | 1121 ft | 133 kts | 283° |
| 2026-05-05 04:02 | 32.72113 | -117.13849 | 935 ft | 132 kts | 284° |
| 2026-05-05 04:03 | 32.72372 | -117.14898 | 717 ft | 133 kts | 284° |
| 2026-05-05 04:03 | 32.72619 | -117.15950 | 511 ft | 132 kts | 284° |
| 2026-05-05 04:03 | 32.72873 | -117.16985 | 321 ft | 132 kts | 284° |
| 2026-05-05 04:03 | 32.73129 | -117.18040 | 71 ft | 133 kts | 284° |
| 2026-05-05 04:04 | 32.73365 | -117.18969 | 27 ft | 92 kts | 285° |
| 2026-05-05 04:04 | 32.73441 | -117.19423 | 28 ft | 27 kts | 257° |
| 2026-05-05 04:04 | 32.73424 | -117.19492 | 29 ft | 4 kts | 250° |
| 2026-05-05 04:04 | 32.73414 | -117.19525 | 29 ft | 5 kts | 250° |
| 2026-05-05 04:05 | 32.73407 | -117.19555 | 29 ft | 4 kts | 264° |
| 2026-05-05 04:05 | 32.73407 | -117.19602 | 28 ft | 8 kts | 279° |
| 2026-05-05 04:05 | 32.73427 | -117.19687 | 28 ft | 12 kts | 286° |
| 2026-05-05 04:05 | 32.73450 | -117.19781 | 29 ft | 12 kts | 286° |
| 2026-05-05 04:06 | 32.73473 | -117.19873 | 29 ft | 12 kts | 286° |
| 2026-05-05 04:06 | 32.73497 | -117.19976 | 28 ft | 14 kts | 286° |
| 2026-05-05 04:06 | 32.73525 | -117.20090 | 28 ft | 15 kts | 286° |
| 2026-05-05 04:06 | 32.73539 | -117.20208 | 28 ft | 14 kts | 249° |
| 2026-05-05 04:07 | 32.73474 | -117.20249 | 26 ft | 12 kts | 195° |
| 2026-05-05 04:07 | 32.73425 | -117.20248 | 28 ft | 9 kts | 150° |
| 2026-05-05 04:07 | 32.73391 | -117.20211 | 26 ft | 0 kts | 136° |